South Ryegate, VT (05069)

9:42 AM EST on February 09, 2016 (GMT -0500)
Ryegate | | Change Station
CLOSE
Current Station
Personal Weather Station
Location: Ryegate, VT
Elevation: 971 ft
Nearby Weather Stations

Elev 971 ft 44.19 °N, 72.13 °W | Updated 11 seconds ago

Mostly Cloudy
Mostly Cloudy
19.4 °F
Feels Like 19 °F
N
0.0
Wind Variable Wind from WSW
Gusts 0.0 mph

Today
High -- | Low -- °F
--% Chance of Precip.
Yesterday
High -- | Low -- °F
Precip. -- in
Pressure 29.68 in
Visibility 10.0 miles
Clouds Mostly Cloudy 1500 ft
Windchill 19 °F
Dew Point 8 °F
Humidity 61%
Rainfall 0.00 in
Snow Depth Not available.
6:57 AM 5:08 PM
New Moon, 1% visible
SPECI KMPV 091440Z AUTO 15007KT 10SM BKN015 M07/M11 A2968 RMK AO2 T10721106
Pressure 29.68 in
Visibility 10.0 miles
Clouds Mostly Cloudy 1500 ft
Windchill 19 °F
Dew Point 8 °F
Humidity 61%
Rainfall 0.00 in
Snow Depth Not available.
6:57 AM 5:08 PM
New Moon, 1% visible
SPECI KMPV 091440Z AUTO 15007KT 10SM BKN015 M07/M11 A2968 RMK AO2 T10721106

10-Day Weather Forecast

Almanac

Astronomy

Feb. 09, 2016 Rise Set
Actual Time
Civil Twilight
Nautical Twilight
Astronomical Twilight
Moon
Length of Visible Light
Length of Day
Tomorrow will be .
, % of the Moon is Illuminated

Today's Extremes

State Highs State Lows

Community

WunderPhotos

Upload Photos

1,891,614 photos uploaded!

WunderBlog® & News

Nearby

Air Quality

  Air Quality AQ Index Pollutant
Not available.

Snow Depth

Station Depth Elevation

Earthquake Activity

City Distance Mag. Time & Date
Minimum magnitude displayed is 2.5.

Coastal Water Temperatures

Place Temperature

Stations

Nearby Weather Stations

Station Location Temp. Windchill Dew Point Humidity Wind Precip. Elev Updated Type
                   

Watches & Warnings

There are currently no watches in effect.